Aérodrome :
LOGIN :

S'inscrire | Disclaimer

   EN    FR    IT 

 










Légende :    VFR   VFR Marginal   IFR   IFR Intensif   IFR Très Intensif
Visi : 
Plafond : 
>= 8 km
>= 3000ft
5 à 8 km
1000 à 3000 ft
1500m à 5 km
500 à 1000 ft
800 à 1500m
200 à 500 ft
< 800m
< 200 ft
Symboles :   Orages  Brouillard  Fortes neiges  Fortes précipitations  Vent > 20 kt
SIGMETs :   Divers  Orages  Givrage  Turbulence  Onde Orograph.  Cendres Volcan.







- Altitude de l'aérodrome : 20 ft


EBFN - Koksijde

DERNIER METAR :
  • 211425Z 27010KT 9999 FEW060 BKN090 12/08 Q1027 BLU BLU TEMPO WHT

METARs EXPIRÉS :
  • 211355Z 27010KT 9999 FEW060 BKN090 12/07 Q1027 BLU BLU TEMPO WHT
  • 211325Z 29009KT 9999 FEW060 BKN090 13/07 Q1027 BLU BLU TEMPO WHT
  • 211255Z 29006KT 9999 FEW060 BKN090 12/07 Q1027 BLU BLU TEMPO WHT
  • 211225Z 26010KT 9999 FEW060 BKN090 13/07 Q1027 BLU BLU TEMPO WHT
  • 211155Z 23012KT 8000 FEW060 BKN090 11/07 Q1027 BLU BLU TEMPO WHT

TAF TAF EBFN
Valide du 21 à 13h jusqu'au 21 à 22h UTC


211141Z 2113/2122 24011KT 8000 BKN050
Pas de NOTAMs connus pour ce terrain.



MET'MAP, la Météo Aéronautique d'un coup d'oeil ! - Copyright ORBIFLY Décembre 2007 - Disclaimer

ORBIFLY MET'MAP TEAM :

Programmation & Développement : Alexandra Zaïnal
Conception & Développement : Baudouin d'Aumeries
Co-Programmation & Développement : Marc-Olivier Méhu
Soutien technique & logistique : Manuel Goepfert

Contact : metmap@orbifly.com




SOURCES & CREDITS :

   NOAA